createdAt,value
2018-06-24T00:00:32.388Z,9.20
2018-06-24T00:01:32.386Z,9.10
2018-06-24T00:02:32.387Z,9.80
2018-06-24T00:03:32.382Z,9.00
2018-06-24T00:04:32.378Z,9.00
2018-06-24T00:05:32.377Z,8.00
2018-06-24T00:06:32.375Z,8.00
2018-06-24T00:07:32.372Z,8.70
2018-06-24T00:08:32.373Z,8.30
2018-06-24T00:09:32.362Z,8.70
2018-06-24T00:10:32.365Z,9.00
2018-06-24T00:11:32.363Z,9.90
2018-06-24T00:12:32.361Z,8.40
2018-06-24T00:13:32.382Z,8.20
2018-06-24T00:14:32.358Z,8.10
2018-06-24T00:15:32.354Z,8.80
2018-06-24T00:16:32.351Z,7.60
2018-06-24T00:17:32.351Z,8.20
2018-06-24T00:18:32.347Z,7.80
2018-06-24T00:19:32.343Z,7.80
2018-06-24T00:20:32.342Z,9.10
2018-06-24T00:21:32.337Z,7.00
2018-06-24T00:22:32.338Z,7.00
2018-06-24T00:23:32.337Z,6.90
2018-06-24T00:24:32.332Z,7.50
2018-06-24T00:25:32.331Z,8.20
2018-06-24T00:26:32.331Z,8.20
2018-06-24T00:27:32.328Z,9.50
2018-06-24T00:28:32.324Z,7.60
2018-06-24T00:29:32.321Z,8.60
2018-06-24T00:30:32.319Z,8.50
2018-06-24T00:31:32.321Z,8.30
2018-06-24T00:32:32.314Z,7.60
2018-06-24T00:33:32.312Z,7.50
2018-06-24T00:34:32.309Z,7.50
2018-06-24T00:35:32.308Z,7.90
2018-06-24T00:36:32.305Z,7.90
2018-06-24T00:37:32.304Z,8.10
2018-06-24T00:38:32.302Z,8.30
2018-06-24T00:39:32.303Z,7.80
2018-06-24T00:40:32.295Z,7.20
2018-06-24T00:41:32.296Z,8.00
2018-06-24T00:42:32.293Z,6.70
2018-06-24T00:43:32.289Z,6.80
2018-06-24T00:44:32.285Z,6.90
2018-06-24T00:45:32.285Z,7.90
2018-06-24T00:46:32.283Z,6.70
2018-06-24T00:47:32.277Z,6.50
2018-06-24T00:48:32.277Z,8.40
2018-06-24T00:49:32.287Z,6.70
2018-06-24T00:50:32.273Z,6.60
2018-06-24T00:51:32.274Z,6.40
2018-06-24T00:52:32.269Z,6.10
2018-06-24T00:53:32.268Z,6.50
2018-06-24T00:54:32.263Z,5.90
2018-06-24T00:55:32.259Z,5.60
2018-06-24T00:56:32.259Z,6.50
2018-06-24T00:57:32.257Z,6.70
2018-06-24T00:58:32.255Z,5.60
2018-06-24T00:59:32.253Z,5.90
2018-06-24T01:00:32.250Z,5.90
2018-06-24T01:01:32.247Z,6.70
2018-06-24T01:02:32.246Z,5.60
2018-06-24T01:03:32.242Z,5.90
2018-06-24T01:04:32.240Z,5.90
2018-06-24T01:05:32.240Z,6.30
2018-06-24T01:06:32.241Z,6.30
2018-06-24T01:07:32.234Z,6.10
2018-06-24T01:08:32.231Z,6.10
2018-06-24T01:09:32.227Z,6.20
2018-06-24T01:10:32.227Z,6.30
2018-06-24T01:11:32.224Z,6.30
2018-06-24T01:12:32.221Z,5.90
2018-06-24T01:13:32.218Z,7.50
2018-06-24T01:14:32.215Z,6.30
2018-06-24T01:15:32.214Z,6.20
2018-06-24T01:16:32.210Z,6.40
2018-06-24T01:17:32.208Z,7.00
2018-06-24T01:18:32.208Z,6.60
2018-06-24T01:19:32.204Z,6.90
2018-06-24T01:20:32.203Z,7.10
2018-06-24T01:21:32.199Z,8.20
2018-06-24T01:22:32.198Z,8.20
2018-06-24T01:23:32.193Z,8.00
2018-06-24T01:24:32.192Z,8.60
2018-06-24T01:25:32.188Z,7.30
2018-06-24T01:26:32.185Z,7.60
2018-06-24T01:27:32.186Z,9.50
2018-06-24T01:28:32.180Z,9.10
2018-06-24T01:29:32.177Z,8.30
2018-06-24T01:30:32.178Z,7.00
2018-06-24T01:31:32.176Z,7.70
2018-06-24T01:32:32.174Z,8.40
2018-06-24T01:33:32.173Z,6.60
2018-06-24T01:34:32.167Z,8.10
2018-06-24T01:35:32.163Z,7.30
2018-06-24T01:36:32.162Z,6.60
2018-06-24T01:37:32.160Z,6.70
2018-06-24T01:38:32.158Z,7.20
2018-06-24T01:39:32.160Z,7.50
2018-06-24T01:40:32.150Z,6.50
2018-06-24T01:41:32.151Z,6.70
2018-06-24T01:42:32.149Z,6.40
2018-06-24T01:43:32.146Z,6.80
2018-06-24T01:44:32.143Z,6.20
2018-06-24T01:45:32.146Z,6.60
2018-06-24T01:46:32.139Z,7.60
2018-06-24T01:47:32.197Z,6.90
2018-06-24T01:48:32.134Z,6.10
2018-06-24T01:49:32.132Z,7.10
2018-06-24T01:50:32.130Z,6.50
2018-06-24T01:51:32.128Z,6.30
2018-06-24T01:52:32.124Z,6.40
2018-06-24T01:53:32.122Z,6.60
2018-06-24T01:54:32.120Z,6.90
2018-06-24T01:55:32.117Z,6.90
2018-06-24T01:56:32.114Z,6.60
2018-06-24T01:57:32.112Z,6.80
2018-06-24T01:58:32.109Z,6.20
2018-06-24T01:59:32.107Z,6.70
2018-06-24T02:00:32.105Z,6.30
2018-06-24T02:01:32.102Z,6.10
2018-06-24T02:02:32.098Z,6.40
2018-06-24T02:03:32.097Z,6.60
2018-06-24T02:04:32.091Z,7.40
2018-06-24T02:05:32.092Z,8.50
2018-06-24T02:06:32.093Z,7.40
2018-06-24T02:07:32.090Z,7.70
2018-06-24T02:08:32.085Z,7.80
2018-06-24T02:09:32.089Z,7.10
2018-06-24T02:10:32.082Z,8.50
2018-06-24T02:11:32.077Z,6.80
2018-06-24T02:12:32.080Z,7.60
2018-06-24T02:13:32.074Z,6.80
2018-06-24T02:14:32.071Z,6.30
2018-06-24T02:15:32.069Z,6.20
2018-06-24T02:16:32.068Z,6.50
2018-06-24T02:17:32.064Z,6.90
2018-06-24T02:18:32.062Z,6.00
2018-06-24T02:19:32.059Z,6.00
2018-06-24T02:20:32.056Z,6.20
2018-06-24T02:21:32.054Z,7.70
2018-06-24T02:22:32.053Z,7.50
2018-06-24T02:23:32.047Z,8.40
2018-06-24T02:24:32.046Z,8.70
2018-06-24T02:25:32.044Z,8.20
2018-06-24T02:26:32.042Z,7.90
2018-06-24T02:27:32.040Z,8.60
2018-06-24T02:28:32.035Z,8.10
2018-06-24T02:29:32.035Z,6.80
2018-06-24T02:30:32.036Z,7.20
2018-06-24T02:31:32.029Z,9.40
2018-06-24T02:32:32.027Z,9.70
2018-06-24T02:33:32.024Z,7.00
2018-06-24T02:34:32.019Z,8.10
2018-06-24T02:35:32.021Z,8.20
2018-06-24T02:36:32.013Z,7.80
2018-06-24T02:37:32.014Z,6.80
2018-06-24T02:38:32.014Z,8.00
2018-06-24T02:39:32.010Z,7.50
2018-06-24T02:40:32.005Z,7.60
2018-06-24T02:41:32.005Z,7.90
2018-06-24T02:42:32.000Z,7.80
2018-06-24T02:43:31.999Z,8.60
2018-06-24T02:44:31.999Z,7.50
2018-06-24T02:45:31.993Z,9.10
2018-06-24T02:46:31.996Z,7.50
2018-06-24T02:47:31.989Z,8.70
2018-06-24T02:48:31.986Z,8.60
2018-06-24T02:49:31.984Z,8.90
2018-06-24T02:50:31.987Z,7.80
2018-06-24T02:51:31.982Z,8.90
2018-06-24T02:52:31.981Z,8.30
2018-06-24T02:53:32.027Z,9.50
2018-06-24T02:54:31.972Z,8.60
2018-06-24T02:55:31.969Z,8.70
2018-06-24T02:56:31.965Z,9.10
2018-06-24T02:57:31.963Z,9.60
2018-06-24T02:58:31.965Z,11.00
2018-06-24T02:59:31.963Z,10.20
2018-06-24T03:00:31.956Z,8.50
2018-06-24T03:01:31.953Z,9.50
2018-06-24T03:02:31.967Z,11.20
2018-06-24T03:03:31.950Z,8.40
2018-06-24T03:04:31.945Z,8.20
2018-06-24T03:05:31.943Z,8.70
2018-06-24T03:06:31.942Z,8.60
2018-06-24T03:07:31.942Z,8.80
2018-06-24T03:08:31.937Z,8.40
2018-06-24T03:09:31.935Z,8.60
2018-06-24T03:10:31.934Z,9.30
2018-06-24T03:11:31.932Z,9.10
2018-06-24T03:12:31.927Z,10.60
2018-06-24T03:13:31.926Z,10.30
2018-06-24T03:14:31.923Z,10.50
2018-06-24T03:15:31.920Z,11.00
2018-06-24T03:16:31.918Z,9.50
2018-06-24T03:17:31.927Z,9.70
2018-06-24T03:18:31.913Z,10.50
2018-06-24T03:19:31.911Z,9.40
2018-06-24T03:20:31.907Z,7.80
2018-06-24T03:21:31.906Z,10.00
2018-06-24T03:22:31.903Z,10.20
2018-06-24T03:23:31.900Z,10.60
2018-06-24T03:24:31.898Z,10.30
2018-06-24T03:25:31.895Z,10.80
2018-06-24T03:26:31.893Z,12.00
2018-06-24T03:27:31.891Z,11.40
2018-06-24T03:28:31.889Z,10.40
2018-06-24T03:29:31.886Z,11.20
2018-06-24T03:30:31.901Z,11.10
2018-06-24T03:31:31.882Z,10.70
2018-06-24T03:32:31.879Z,11.50
2018-06-24T03:33:31.879Z,12.30
2018-06-24T03:34:31.874Z,10.40
2018-06-24T03:35:31.872Z,11.10
2018-06-24T03:36:31.868Z,10.40
2018-06-24T03:37:31.868Z,14.00
2018-06-24T03:38:31.865Z,11.70
2018-06-24T03:39:31.862Z,10.10
2018-06-24T03:40:31.862Z,11.90
2018-06-24T03:41:31.857Z,11.70
2018-06-24T03:42:31.855Z,12.50
2018-06-24T03:43:31.859Z,12.30
2018-06-24T03:44:31.852Z,13.10
2018-06-24T03:45:31.848Z,13.10
2018-06-24T03:46:31.844Z,13.80
2018-06-24T03:47:31.842Z,11.20
2018-06-24T03:48:31.845Z,14.00
2018-06-24T03:49:31.841Z,13.00
2018-06-24T03:50:31.834Z,16.50
2018-06-24T03:51:31.830Z,12.80
2018-06-24T03:52:31.829Z,13.50
2018-06-24T03:53:31.826Z,13.60
2018-06-24T03:54:31.824Z,14.30
2018-06-24T03:55:31.832Z,12.50
2018-06-24T03:56:31.822Z,13.40
2018-06-24T03:57:31.815Z,14.10
2018-06-24T03:58:31.817Z,11.50
2018-06-24T03:59:31.812Z,11.00
2018-06-24T04:00:31.808Z,11.50
2018-06-24T04:01:31.807Z,11.60
2018-06-24T04:02:31.805Z,11.40
2018-06-24T04:03:31.801Z,12.00
2018-06-24T04:04:31.797Z,14.00
2018-06-24T04:05:31.797Z,13.60
2018-06-24T04:06:31.794Z,13.50
2018-06-24T04:07:31.792Z,13.30
2018-06-24T04:08:31.789Z,11.70
2018-06-24T04:09:31.788Z,11.90
2018-06-24T04:10:31.785Z,12.30
2018-06-24T04:11:31.783Z,12.80
2018-06-24T04:12:31.778Z,14.20
2018-06-24T04:13:31.776Z,13.30
2018-06-24T04:14:31.775Z,14.10
2018-06-24T04:15:31.772Z,12.00
2018-06-24T04:16:31.770Z,14.60
2018-06-24T04:17:31.766Z,12.50
2018-06-24T04:18:31.764Z,11.80
2018-06-24T04:19:31.761Z,13.90
2018-06-24T04:20:31.760Z,15.50
2018-06-24T04:21:31.758Z,14.00
2018-06-24T04:22:31.754Z,11.10
2018-06-24T04:23:31.752Z,12.90
2018-06-24T04:24:31.750Z,14.60
2018-06-24T04:25:31.766Z,13.00
2018-06-24T04:26:31.745Z,12.40
2018-06-24T04:27:31.742Z,13.60
2018-06-24T04:28:31.738Z,13.40
2018-06-24T04:29:31.738Z,10.90
2018-06-24T04:30:31.736Z,13.20
2018-06-24T04:31:31.731Z,14.30
2018-06-24T04:32:31.730Z,13.10
2018-06-24T04:33:31.736Z,14.60
2018-06-24T04:34:31.724Z,12.30
2018-06-24T04:35:31.723Z,13.00
2018-06-24T04:36:31.722Z,13.80
2018-06-24T04:37:31.729Z,13.40
2018-06-24T04:38:31.714Z,11.50
2018-06-24T04:39:31.717Z,11.80
2018-06-24T04:40:31.709Z,14.50
2018-06-24T04:41:31.707Z,12.80
2018-06-24T04:42:31.708Z,12.90
2018-06-24T04:43:31.705Z,14.40
2018-06-24T04:44:31.701Z,14.80
2018-06-24T04:45:31.701Z,12.70
2018-06-24T04:46:31.696Z,14.70
2018-06-24T04:47:31.705Z,16.10
2018-06-24T04:48:31.696Z,12.00
2018-06-24T04:49:31.696Z,12.70
2018-06-24T04:50:31.688Z,12.80
2018-06-24T04:51:31.700Z,12.00
2018-06-24T04:52:31.683Z,13.60
2018-06-24T04:53:31.680Z,17.70
2018-06-24T04:54:31.683Z,14.70
2018-06-24T04:55:31.679Z,19.00
2018-06-24T04:56:31.673Z,14.90
2018-06-24T04:57:31.670Z,14.20
2018-06-24T04:58:31.667Z,17.10
2018-06-24T04:59:31.671Z,14.90
2018-06-24T05:00:31.668Z,17.60
2018-06-24T05:01:31.661Z,16.70
2018-06-24T05:02:31.661Z,14.90
2018-06-24T05:03:31.658Z,14.20
2018-06-24T05:04:31.655Z,15.10
2018-06-24T05:05:31.652Z,16.20
2018-06-24T05:06:31.728Z,14.60
2018-06-24T05:07:31.649Z,14.80
2018-06-24T05:08:31.647Z,18.00
2018-06-24T05:09:31.644Z,17.40
2018-06-24T05:10:31.642Z,15.30
2018-06-24T05:11:31.641Z,18.70
2018-06-24T05:12:31.639Z,17.90
2018-06-24T05:13:31.636Z,20.10
2018-06-24T05:14:31.633Z,17.10
2018-06-24T05:15:31.632Z,16.80
2018-06-24T05:16:31.625Z,16.60
2018-06-24T05:17:31.629Z,17.20
2018-06-24T05:18:31.627Z,17.50
2018-06-24T05:19:31.623Z,17.80
2018-06-24T05:20:31.620Z,18.30
2018-06-24T05:21:31.617Z,16.80
2018-06-24T05:22:31.616Z,16.00
2018-06-24T05:23:31.618Z,16.80
2018-06-24T05:24:31.608Z,14.90
2018-06-24T05:25:31.610Z,17.30
2018-06-24T05:26:31.608Z,13.00
2018-06-24T05:27:31.650Z,17.70
2018-06-24T05:28:31.602Z,16.60
2018-06-24T05:29:31.606Z,16.20
2018-06-24T05:30:31.598Z,19.80
2018-06-24T05:31:31.603Z,16.20
2018-06-24T05:32:31.596Z,16.20
2018-06-24T05:33:31.593Z,16.70
2018-06-24T05:34:31.592Z,15.50
2018-06-24T05:35:31.594Z,14.50
2018-06-24T05:36:31.589Z,14.20
2018-06-24T05:37:31.586Z,14.00
2018-06-24T05:38:31.585Z,15.70
2018-06-24T05:39:31.582Z,14.40
2018-06-24T05:40:31.584Z,15.60
2018-06-24T05:41:31.579Z,14.60
2018-06-24T05:42:31.576Z,17.10
2018-06-24T05:43:31.576Z,13.80
2018-06-24T05:44:31.571Z,16.00
2018-06-24T05:45:31.570Z,15.80
2018-06-24T05:46:31.569Z,15.30
2018-06-24T05:47:31.566Z,13.90
2018-06-24T05:48:31.560Z,14.10
2018-06-24T05:49:31.562Z,14.80
2018-06-24T05:50:31.559Z,12.10
2018-06-24T05:51:31.561Z,15.20
2018-06-24T05:52:31.557Z,16.60
2018-06-24T05:53:31.553Z,15.50
2018-06-24T05:54:31.555Z,14.30
2018-06-24T05:55:31.552Z,13.40
2018-06-24T05:56:31.547Z,14.40
2018-06-24T05:57:31.545Z,13.20
2018-06-24T05:58:31.541Z,14.60
2018-06-24T05:59:31.541Z,14.20
2018-06-24T06:00:31.538Z,11.80
2018-06-24T06:01:31.536Z,14.30
2018-06-24T06:02:31.535Z,15.50
2018-06-24T06:03:31.533Z,16.30
2018-06-24T06:04:31.529Z,13.30
2018-06-24T06:05:31.529Z,13.80
2018-06-24T06:06:31.527Z,13.90
2018-06-24T06:07:31.525Z,11.90
2018-06-24T06:08:31.526Z,13.90
2018-06-24T06:09:31.521Z,10.70
2018-06-24T06:10:31.590Z,13.30
2018-06-24T06:11:31.520Z,11.70
2018-06-24T06:12:31.513Z,11.50
2018-06-24T06:13:31.513Z,14.20
2018-06-24T06:14:31.512Z,13.10
2018-06-24T06:15:31.510Z,12.70
2018-06-24T06:16:31.507Z,12.80
2018-06-24T06:17:31.506Z,15.90
2018-06-24T06:18:31.508Z,13.10
2018-06-24T06:19:31.502Z,14.40
2018-06-24T06:20:31.499Z,9.60
2018-06-24T06:21:31.499Z,12.00
2018-06-24T06:22:31.496Z,11.20
2018-06-24T06:23:31.494Z,12.30
2018-06-24T06:24:31.492Z,14.40
2018-06-24T06:25:31.491Z,13.10
2018-06-24T06:26:31.489Z,9.50
2018-06-24T06:27:31.486Z,14.20
2018-06-24T06:28:31.484Z,10.40
2018-06-24T06:29:31.485Z,13.60
2018-06-24T06:30:31.483Z,12.50
2018-06-24T06:31:31.480Z,11.70
2018-06-24T06:32:31.478Z,11.10
2018-06-24T06:33:31.476Z,12.40
2018-06-24T06:34:31.478Z,12.40
2018-06-24T06:35:31.473Z,11.20
2018-06-24T06:36:31.471Z,10.10
2018-06-24T06:37:31.472Z,10.80
2018-06-24T06:38:31.470Z,10.70
2018-06-24T06:39:31.466Z,11.40
2018-06-24T06:40:31.465Z,9.70
2018-06-24T06:41:31.462Z,9.70
2018-06-24T06:42:31.458Z,10.60
2018-06-24T06:43:31.459Z,9.30
2018-06-24T06:44:31.456Z,8.60
2018-06-24T06:45:31.560Z,8.90
2018-06-24T06:46:31.455Z,10.40
2018-06-24T06:47:31.453Z,10.20
2018-06-24T06:48:31.449Z,10.40
2018-06-24T06:49:31.449Z,11.10
2018-06-24T06:50:31.446Z,11.40
2018-06-24T06:51:31.445Z,8.60
2018-06-24T06:52:31.442Z,9.10
2018-06-24T06:53:31.440Z,8.90
2018-06-24T06:54:31.439Z,9.40
2018-06-24T06:55:31.443Z,10.40
2018-06-24T06:56:31.434Z,11.30
2018-06-24T06:57:31.434Z,11.10
2018-06-24T06:58:31.433Z,12.40
2018-06-24T06:59:31.434Z,9.20
2018-06-24T07:00:31.428Z,10.20
2018-06-24T07:01:31.427Z,10.90
2018-06-24T07:02:31.428Z,9.90
2018-06-24T07:03:31.448Z,8.60
2018-06-24T07:04:31.421Z,9.60
2018-06-24T07:05:31.421Z,10.60
2018-06-24T07:06:31.419Z,12.70
2018-06-24T07:07:31.420Z,10.10
2018-06-24T07:08:31.416Z,9.00
2018-06-24T07:09:31.418Z,10.80
2018-06-24T07:10:31.411Z,8.30
2018-06-24T07:11:31.411Z,10.70
2018-06-24T07:12:31.407Z,12.30
2018-06-24T07:13:31.413Z,11.40
2018-06-24T07:14:31.403Z,10.90
2018-06-24T07:15:31.405Z,12.80
2018-06-24T07:16:31.402Z,12.40
2018-06-24T07:17:31.401Z,11.90
2018-06-24T07:18:31.400Z,10.10
2018-06-24T07:19:31.398Z,11.40
2018-06-24T07:20:31.395Z,11.20
2018-06-24T07:21:31.394Z,10.80
2018-06-24T07:22:31.396Z,11.90
2018-06-24T07:23:31.392Z,12.30
2018-06-24T07:24:31.390Z,12.10
2018-06-24T07:25:31.392Z,10.60
2018-06-24T07:26:31.388Z,11.40
2018-06-24T07:27:31.387Z,10.60
2018-06-24T07:28:31.384Z,11.30
2018-06-24T07:29:31.384Z,11.80
2018-06-24T07:30:31.385Z,11.40
2018-06-24T07:31:31.383Z,10.80
2018-06-24T07:32:31.384Z,10.40
2018-06-24T07:33:31.394Z,11.30
2018-06-24T07:34:31.378Z,11.90
2018-06-24T07:35:31.374Z,13.70
2018-06-24T07:36:31.374Z,9.80
2018-06-24T07:37:31.371Z,12.70
2018-06-24T07:38:31.413Z,13.00
2018-06-24T07:39:31.374Z,10.90
2018-06-24T07:40:31.371Z,13.00
2018-06-24T07:41:31.369Z,10.10
2018-06-24T07:42:31.368Z,11.50
2018-06-24T07:43:31.367Z,11.30
2018-06-24T07:44:31.365Z,9.30
2018-06-24T07:45:31.362Z,11.30
2018-06-24T07:46:31.363Z,12.00
2018-06-24T07:47:31.363Z,13.10
2018-06-24T07:48:31.357Z,13.10
2018-06-24T07:49:31.361Z,13.40
2018-06-24T07:50:31.356Z,10.30
2018-06-24T07:51:31.356Z,12.20
2018-06-24T07:52:31.355Z,9.30
2018-06-24T07:53:31.353Z,9.50
2018-06-24T07:54:31.353Z,10.80
2018-06-24T07:55:31.351Z,10.50
2018-06-24T07:56:31.355Z,10.80
2018-06-24T07:57:31.522Z,10.50
2018-06-24T07:58:31.347Z,9.40
2018-06-24T07:59:31.347Z,10.80
2018-06-24T08:00:31.339Z,11.40
2018-06-24T08:01:31.342Z,8.80
2018-06-24T08:02:31.341Z,9.70
2018-06-24T08:03:31.341Z,10.50
2018-06-24T08:04:31.339Z,12.30
2018-06-24T08:05:31.338Z,9.90
2018-06-24T08:06:31.340Z,8.80
2018-06-24T08:07:31.336Z,8.50
2018-06-24T08:08:31.336Z,8.40
2018-06-24T08:09:31.332Z,11.70
2018-06-24T08:10:31.330Z,8.50
2018-06-24T08:11:31.330Z,10.70
2018-06-24T08:12:31.327Z,10.00
2018-06-24T08:13:31.326Z,8.40
2018-06-24T08:14:31.324Z,9.90
2018-06-24T08:15:31.324Z,10.80
2018-06-24T08:16:31.321Z,9.80
2018-06-24T08:17:31.321Z,9.50
2018-06-24T08:18:31.319Z,7.90
2018-06-24T08:19:31.316Z,10.00
2018-06-24T08:20:31.314Z,10.70
2018-06-24T08:21:31.313Z,10.30
2018-06-24T08:22:31.312Z,10.30
2018-06-24T08:23:31.312Z,7.80
2018-06-24T08:24:31.308Z,11.30
2018-06-24T08:25:31.308Z,9.60
2018-06-24T08:26:31.306Z,7.80
2018-06-24T08:27:31.306Z,8.20
2018-06-24T08:28:31.303Z,7.90
2018-06-24T08:29:31.302Z,8.80
2018-06-24T08:30:31.299Z,7.70
2018-06-24T08:31:31.309Z,9.40
2018-06-24T08:32:31.295Z,10.10
2018-06-24T08:33:31.304Z,8.80
2018-06-24T08:34:31.295Z,10.30
2018-06-24T08:35:31.290Z,9.50
2018-06-24T08:36:31.290Z,11.70
2018-06-24T08:37:31.287Z,9.60
2018-06-24T08:38:31.286Z,10.40
2018-06-24T08:39:31.288Z,9.80
2018-06-24T08:40:31.280Z,10.70
2018-06-24T08:41:31.282Z,9.30
2018-06-24T08:42:31.281Z,11.90
2018-06-24T08:43:31.278Z,9.10
2018-06-24T08:44:31.277Z,9.30
2018-06-24T08:45:31.278Z,10.10
2018-06-24T08:46:31.274Z,8.80
2018-06-24T08:47:31.274Z,8.70
2018-06-24T08:48:31.270Z,7.50
2018-06-24T08:49:31.270Z,7.50
2018-06-24T08:50:31.269Z,7.30
2018-06-24T08:51:31.268Z,7.40
2018-06-24T08:52:31.266Z,8.50
2018-06-24T08:53:31.265Z,8.90
2018-06-24T08:54:31.266Z,9.40
2018-06-24T08:55:31.264Z,9.60
2018-06-24T08:56:31.263Z,7.80
2018-06-24T08:57:31.262Z,8.10
2018-06-24T08:58:31.261Z,8.30
2018-06-24T08:59:31.259Z,8.80
2018-06-24T09:00:31.261Z,8.00
2018-06-24T09:01:31.257Z,7.80
2018-06-24T09:02:31.254Z,7.90
2018-06-24T09:03:31.256Z,8.30
2018-06-24T09:04:31.255Z,8.00
2018-06-24T09:05:31.255Z,8.60
2018-06-24T09:06:31.252Z,8.40
2018-06-24T09:07:31.262Z,8.50
2018-06-24T09:08:31.252Z,7.40
2018-06-24T09:09:31.252Z,7.00
2018-06-24T09:10:31.249Z,6.80
2018-06-24T09:11:31.251Z,7.00
2018-06-24T09:12:31.250Z,7.40
2018-06-24T09:13:31.248Z,6.10
2018-06-24T09:14:31.250Z,6.70
2018-06-24T09:15:31.310Z,6.70
2018-06-24T09:16:31.247Z,7.50
2018-06-24T09:17:31.242Z,6.50
2018-06-24T09:18:31.244Z,6.60
2018-06-24T09:19:31.244Z,6.20
2018-06-24T09:20:31.242Z,6.80
2018-06-24T09:21:31.243Z,7.00
2018-06-24T09:22:31.245Z,6.30
2018-06-24T09:23:31.242Z,6.50
2018-06-24T09:24:31.240Z,6.70
2018-06-24T09:25:31.242Z,6.40
2018-06-24T09:26:31.246Z,6.40
2018-06-24T09:27:31.239Z,6.90
2018-06-24T09:28:31.246Z,7.20
2018-06-24T09:29:31.240Z,8.00
2018-06-24T09:30:31.238Z,7.70
2018-06-24T09:31:31.238Z,6.90
2018-06-24T09:32:31.235Z,5.90
2018-06-24T09:33:31.235Z,6.20
2018-06-24T09:34:31.243Z,6.50
2018-06-24T09:35:31.236Z,6.60
2018-06-24T09:36:31.234Z,6.20
2018-06-24T09:37:31.234Z,5.60
2018-06-24T09:38:31.233Z,5.90
2018-06-24T09:39:31.234Z,6.10
2018-06-24T09:40:31.232Z,6.80
2018-06-24T09:41:31.232Z,6.20
2018-06-24T09:42:31.233Z,6.80
2018-06-24T09:43:31.230Z,7.30
2018-06-24T09:44:31.233Z,5.90
2018-06-24T09:45:31.230Z,5.60
2018-06-24T09:46:31.229Z,6.30
2018-06-24T09:47:31.230Z,7.00
2018-06-24T09:48:31.230Z,6.10
2018-06-24T09:49:31.227Z,5.60
2018-06-24T09:50:31.228Z,6.40
2018-06-24T09:51:31.229Z,5.50
2018-06-24T09:52:31.240Z,5.80
2018-06-24T09:53:31.368Z,6.00
2018-06-24T09:54:31.228Z,6.10
2018-06-24T09:55:31.228Z,6.10
2018-06-24T09:56:31.229Z,6.30
2018-06-24T09:57:31.227Z,5.60
2018-06-24T09:58:31.226Z,4.90
2018-06-24T09:59:31.226Z,4.60
2018-06-24T10:00:31.223Z,3.90
2018-06-24T10:01:31.225Z,4.40
2018-06-24T10:02:31.224Z,4.60
2018-06-24T10:03:31.225Z,4.90
2018-06-24T10:04:31.228Z,5.10
2018-06-24T10:05:31.229Z,4.90
2018-06-24T10:06:31.227Z,4.70
2018-06-24T10:07:31.227Z,5.20
2018-06-24T10:08:31.227Z,5.00
2018-06-24T10:09:31.226Z,5.30
2018-06-24T10:10:31.228Z,5.10
2018-06-24T10:11:31.227Z,5.00
2018-06-24T10:12:31.226Z,5.00
2018-06-24T10:13:31.226Z,5.70
2018-06-24T10:14:31.227Z,6.20
2018-06-24T10:15:31.223Z,6.80
2018-06-24T10:16:31.228Z,6.60
2018-06-24T10:17:31.230Z,5.80
2018-06-24T10:18:31.225Z,6.20
2018-06-24T10:19:31.228Z,6.10
2018-06-24T10:20:31.228Z,6.00
2018-06-24T10:21:31.230Z,5.80
2018-06-24T10:22:31.228Z,5.80
2018-06-24T10:23:31.227Z,6.10
2018-06-24T10:24:31.225Z,5.50
2018-06-24T10:25:31.232Z,5.20
2018-06-24T10:26:31.228Z,5.90
2018-06-24T10:27:31.228Z,5.40
2018-06-24T10:28:31.226Z,5.20
2018-06-24T10:29:31.246Z,5.10
2018-06-24T10:30:31.229Z,5.30
2018-06-24T10:31:31.227Z,5.00
2018-06-24T10:32:31.228Z,5.70
2018-06-24T10:33:31.229Z,6.30
2018-06-24T10:34:31.228Z,5.20
2018-06-24T10:35:31.229Z,5.40
2018-06-24T10:36:31.228Z,6.30
2018-06-24T10:37:31.229Z,5.50
2018-06-24T10:38:31.226Z,5.90
2018-06-24T10:39:31.231Z,5.30
2018-06-24T10:40:31.229Z,4.10
2018-06-24T10:41:31.228Z,4.10
2018-06-24T10:42:31.236Z,3.60
2018-06-24T10:43:31.230Z,3.60
2018-06-24T10:44:31.230Z,4.10
2018-06-24T10:45:31.231Z,3.60
2018-06-24T10:46:31.233Z,4.30
2018-06-24T10:47:31.266Z,4.40
2018-06-24T10:48:31.231Z,3.70
2018-06-24T10:49:31.239Z,4.60
2018-06-24T10:50:31.234Z,4.90
2018-06-24T10:51:31.238Z,4.00
2018-06-24T10:52:31.233Z,3.50
2018-06-24T10:53:31.234Z,3.80
2018-06-24T10:54:31.233Z,3.70
2018-06-24T10:55:31.236Z,3.80
2018-06-24T10:56:31.235Z,3.80
2018-06-24T10:57:31.236Z,3.40
2018-06-24T10:58:31.235Z,3.00
2018-06-24T10:59:31.237Z,3.00
2018-06-24T11:00:31.235Z,3.60
2018-06-24T11:01:31.237Z,3.40
2018-06-24T11:02:31.250Z,3.30
2018-06-24T11:03:31.237Z,3.60
2018-06-24T11:04:31.240Z,3.10
2018-06-24T11:05:31.241Z,3.00
2018-06-24T11:06:31.238Z,3.20
2018-06-24T11:07:31.240Z,2.60
2018-06-24T11:08:31.240Z,2.90
2018-06-24T11:09:31.238Z,2.70
2018-06-24T11:10:31.241Z,3.30
2018-06-24T11:11:31.242Z,3.10
2018-06-24T11:12:31.240Z,3.30
2018-06-24T11:13:31.243Z,3.50
2018-06-24T11:14:31.243Z,3.40
2018-06-24T11:15:31.244Z,3.30
2018-06-24T11:16:31.285Z,4.50
2018-06-24T11:17:31.246Z,2.90
2018-06-24T11:18:31.245Z,2.80
2018-06-24T11:19:31.243Z,2.80
2018-06-24T11:20:31.245Z,2.60
2018-06-24T11:21:31.249Z,3.00
2018-06-24T11:22:31.245Z,3.00
2018-06-24T11:23:31.245Z,2.90
2018-06-24T11:24:31.245Z,2.90
2018-06-24T11:25:31.245Z,3.30
2018-06-24T11:26:31.262Z,3.10
2018-06-24T11:27:31.246Z,3.30
2018-06-24T11:28:31.245Z,3.30
2018-06-24T11:29:31.246Z,2.80
2018-06-24T11:30:31.250Z,2.50
2018-06-24T11:31:31.246Z,3.90
2018-06-24T11:32:31.245Z,2.80
2018-06-24T11:33:31.247Z,2.10
2018-06-24T11:34:31.251Z,2.30
2018-06-24T11:35:31.248Z,2.00
2018-06-24T11:36:31.249Z,2.30
2018-06-24T11:37:31.245Z,1.90
2018-06-24T11:38:31.250Z,2.00
2018-06-24T11:39:31.249Z,2.20
2018-06-24T11:40:31.249Z,2.50
2018-06-24T11:41:31.251Z,2.20
2018-06-24T11:42:31.248Z,2.40
2018-06-24T11:43:31.254Z,2.80
2018-06-24T11:44:31.251Z,2.00
2018-06-24T11:45:31.253Z,2.10
2018-06-24T11:46:31.250Z,2.10
2018-06-24T11:47:31.252Z,2.10
2018-06-24T11:48:31.253Z,3.00
2018-06-24T11:49:31.254Z,2.10
2018-06-24T11:50:31.254Z,2.40
2018-06-24T11:51:31.256Z,2.80
2018-06-24T11:52:31.259Z,2.60
2018-06-24T11:53:31.257Z,2.20
2018-06-24T11:54:31.257Z,2.20
2018-06-24T11:55:31.258Z,2.40
2018-06-24T11:56:31.258Z,1.90
2018-06-24T11:57:31.259Z,1.80
2018-06-24T11:58:31.260Z,2.10
2018-06-24T11:59:31.263Z,2.00
2018-06-24T12:00:31.263Z,2.30
2018-06-24T12:01:31.263Z,2.50
2018-06-24T12:02:31.324Z,2.70
2018-06-24T12:03:31.266Z,2.20
2018-06-24T12:04:31.266Z,3.00
2018-06-24T12:05:31.264Z,2.30
2018-06-24T12:06:31.269Z,2.90
2018-06-24T12:07:31.269Z,2.30
2018-06-24T12:08:31.268Z,2.40
2018-06-24T12:09:31.271Z,2.90
2018-06-24T12:10:31.269Z,3.20
2018-06-24T12:11:31.267Z,3.10
2018-06-24T12:12:31.271Z,2.60
2018-06-24T12:13:31.273Z,2.60
2018-06-24T12:14:31.275Z,2.50
2018-06-24T12:15:31.274Z,3.80
2018-06-24T12:16:31.275Z,3.40
2018-06-24T12:17:31.278Z,2.70
2018-06-24T12:18:31.280Z,2.60
2018-06-24T12:19:31.279Z,2.90
2018-06-24T12:20:31.280Z,2.80
2018-06-24T12:21:31.281Z,2.80
2018-06-24T12:22:31.281Z,2.90
2018-06-24T12:23:31.282Z,3.40
2018-06-24T12:24:31.278Z,3.00
2018-06-24T12:25:31.284Z,3.20
2018-06-24T12:26:31.284Z,3.00
2018-06-24T12:27:31.285Z,2.90
2018-06-24T12:28:31.285Z,3.30
2018-06-24T12:29:31.284Z,3.10
2018-06-24T12:30:31.291Z,3.20
2018-06-24T12:31:31.288Z,3.40
2018-06-24T12:32:31.289Z,3.20
2018-06-24T12:33:31.289Z,3.40
2018-06-24T12:34:31.291Z,3.40
2018-06-24T12:35:31.290Z,4.00
2018-06-24T12:36:31.290Z,3.60
2018-06-24T12:37:31.308Z,3.60
2018-06-24T12:38:31.291Z,4.50
2018-06-24T12:39:31.294Z,4.30
2018-06-24T12:40:31.293Z,3.90
2018-06-24T12:41:31.294Z,3.70
2018-06-24T12:42:31.294Z,4.40
2018-06-24T12:43:31.364Z,3.50
2018-06-24T12:44:31.293Z,3.30
2018-06-24T12:45:31.296Z,3.60
2018-06-24T12:46:31.295Z,3.80
2018-06-24T12:47:31.297Z,3.60
2018-06-24T12:48:31.301Z,3.20
2018-06-24T12:49:31.299Z,2.70
2018-06-24T12:50:31.296Z,3.00
2018-06-24T12:51:31.300Z,3.10
2018-06-24T12:52:31.299Z,4.50
2018-06-24T12:53:31.300Z,3.20
2018-06-24T12:54:31.299Z,3.20
2018-06-24T12:55:31.305Z,2.80
2018-06-24T12:56:31.299Z,3.10
2018-06-24T12:57:31.304Z,3.70
2018-06-24T12:58:31.320Z,3.00
2018-06-24T12:59:31.544Z,3.00
2018-06-24T13:00:31.895Z,3.10
2018-06-24T13:01:31.303Z,3.00
2018-06-24T13:02:31.305Z,2.60
2018-06-24T13:03:31.306Z,3.00
2018-06-24T13:04:31.306Z,3.10
2018-06-24T13:05:31.341Z,2.90
2018-06-24T13:06:31.309Z,3.30
2018-06-24T13:07:31.308Z,3.20
2018-06-24T13:08:31.308Z,3.80
2018-06-24T13:09:31.309Z,3.50